createdAt,value
2022-12-08T00:01:21.295Z,3.68
2022-12-08T00:03:48.399Z,3.65
2022-12-08T00:06:54.523Z,3.62
2022-12-08T00:09:41.816Z,3.65
2022-12-08T00:12:17.844Z,3.58
2022-12-08T00:14:46.872Z,3.63
2022-12-08T00:17:15.614Z,3.74
2022-12-08T00:19:43.133Z,3.66
2022-12-08T00:22:11.217Z,3.66
2022-12-08T00:24:39.905Z,3.58
2022-12-08T00:27:08.003Z,3.63
2022-12-08T00:29:34.474Z,3.58
2022-12-08T00:32:01.052Z,3.61
2022-12-08T00:34:27.688Z,3.53
2022-12-08T00:36:54.382Z,3.54
2022-12-08T00:39:20.887Z,3.43
2022-12-08T00:42:05.798Z,3.44
2022-12-08T00:44:32.347Z,3.45
2022-12-08T00:46:58.946Z,3.41
2022-12-08T00:49:25.513Z,3.52
2022-12-08T00:51:52.427Z,3.43
2022-12-08T00:54:18.918Z,3.48
2022-12-08T00:56:46.178Z,3.50
2022-12-08T00:59:12.621Z,3.47
2022-12-08T01:01:39.195Z,3.46
2022-12-08T01:04:07.439Z,3.58
2022-12-08T01:06:36.983Z,3.53
2022-12-08T01:09:05.730Z,3.60
2022-12-08T01:11:32.943Z,3.56
2022-12-08T01:13:59.537Z,3.57
2022-12-08T01:16:28.829Z,3.69
2022-12-08T01:18:57.278Z,3.66
2022-12-08T01:21:24.098Z,3.64
2022-12-08T01:23:50.605Z,3.67
2022-12-08T01:26:18.183Z,3.72
2022-12-08T01:28:45.700Z,3.73
2022-12-08T01:31:14.908Z,3.68
2022-12-08T01:33:42.019Z,3.72
2022-12-08T01:36:17.993Z,3.68
2022-12-08T01:38:44.411Z,3.70
2022-12-08T01:41:15.702Z,3.68
2022-12-08T01:44:23.558Z,3.68
2022-12-08T01:46:52.491Z,3.74
2022-12-08T01:49:26.248Z,3.69
2022-12-08T01:52:14.144Z,3.69
2022-12-08T01:54:50.036Z,3.57
2022-12-08T01:57:49.307Z,3.58
2022-12-08T02:00:18.438Z,3.53
2022-12-08T02:03:04.798Z,3.61
2022-12-08T02:05:34.960Z,3.65
2022-12-08T02:08:06.987Z,3.69
2022-12-08T02:10:36.561Z,3.67
2022-12-08T02:13:04.488Z,3.79
2022-12-08T02:15:45.396Z,3.77
2022-12-08T02:18:41.417Z,3.73
2022-12-08T02:21:16.060Z,3.71
2022-12-08T02:23:59.305Z,3.64
2022-12-08T02:26:47.656Z,3.60
2022-12-08T02:29:39.722Z,3.65
2022-12-08T02:32:45.000Z,3.49
2022-12-08T02:35:32.399Z,3.54
2022-12-08T02:38:07.812Z,3.52
2022-12-08T02:41:02.307Z,3.43
2022-12-08T02:43:42.539Z,3.41
2022-12-08T02:46:34.293Z,3.41
2022-12-08T02:49:02.115Z,3.41
2022-12-08T02:51:28.595Z,3.38
2022-12-08T02:53:55.535Z,3.40
2022-12-08T02:56:40.739Z,3.43
2022-12-08T02:59:15.376Z,3.47
2022-12-08T03:02:06.256Z,3.42
2022-12-08T03:04:46.632Z,3.45
2022-12-08T03:07:17.362Z,3.40
2022-12-08T03:09:54.373Z,3.42
2022-12-08T03:12:28.807Z,3.43
2022-12-08T03:14:59.801Z,3.42
2022-12-08T03:17:29.682Z,3.45
2022-12-08T03:19:58.179Z,3.44
2022-12-08T03:22:27.522Z,3.48
2022-12-08T03:24:56.428Z,3.49
2022-12-08T03:27:28.630Z,3.53
2022-12-08T03:29:57.673Z,3.60
2022-12-08T03:32:36.186Z,3.65
2022-12-08T03:35:08.291Z,3.67
2022-12-08T03:37:37.804Z,3.72
2022-12-08T03:40:08.323Z,3.65
2022-12-08T03:42:34.819Z,3.67
2022-12-08T03:45:01.300Z,3.68
2022-12-08T03:47:27.783Z,3.75
2022-12-08T03:49:54.296Z,3.75
2022-12-08T03:52:20.748Z,3.74
2022-12-08T03:54:47.232Z,3.70
2022-12-08T03:57:13.826Z,3.75
2022-12-08T03:59:40.282Z,3.78
2022-12-08T04:02:06.797Z,3.79
2022-12-08T04:04:33.528Z,3.75
2022-12-08T04:06:59.980Z,3.81
2022-12-08T04:09:26.420Z,3.76
2022-12-08T04:11:52.919Z,3.54
2022-12-08T04:14:19.552Z,3.43
2022-12-08T04:16:46.010Z,3.25
2022-12-08T04:19:12.473Z,3.16
2022-12-08T04:21:38.976Z,3.16
2022-12-08T04:24:05.658Z,3.10
2022-12-08T04:26:32.112Z,3.16
2022-12-08T04:28:58.577Z,3.18
2022-12-08T04:31:25.060Z,3.25
2022-12-08T04:33:51.592Z,3.25
2022-12-08T04:36:18.234Z,3.17
2022-12-08T04:38:44.688Z,3.17
2022-12-08T04:41:11.302Z,3.18
2022-12-08T04:43:37.815Z,3.21
2022-12-08T04:46:10.580Z,3.17
2022-12-08T04:48:38.281Z,3.20
2022-12-08T04:51:05.112Z,3.24
2022-12-08T04:53:31.740Z,3.23
2022-12-08T04:55:58.273Z,3.24
2022-12-08T04:58:24.939Z,3.34
2022-12-08T05:00:51.533Z,3.36
2022-12-08T05:03:18.091Z,3.41
2022-12-08T05:05:44.651Z,3.34
2022-12-08T05:08:11.326Z,3.32
2022-12-08T05:10:38.788Z,3.25
2022-12-08T05:13:05.430Z,3.29
2022-12-08T05:15:31.895Z,3.28
2022-12-08T05:17:58.380Z,3.29
2022-12-08T05:20:25.895Z,3.26
2022-12-08T05:22:52.380Z,3.25
2022-12-08T05:25:18.831Z,3.27
2022-12-08T05:27:45.434Z,3.26
2022-12-08T05:30:12.121Z,3.22
2022-12-08T05:32:38.603Z,3.14
2022-12-08T05:35:05.350Z,3.12
2022-12-08T05:37:31.846Z,3.07
2022-12-08T05:39:58.343Z,3.07
2022-12-08T05:42:25.290Z,3.10
2022-12-08T05:44:52.112Z,3.08
2022-12-08T05:47:18.681Z,3.11
2022-12-08T05:49:45.153Z,2.97
2022-12-08T05:52:11.654Z,2.93
2022-12-08T05:54:39.463Z,2.95
2022-12-08T05:57:06.008Z,2.95
2022-12-08T05:59:32.626Z,2.96
2022-12-08T06:01:59.241Z,3.03
2022-12-08T06:04:25.819Z,3.16
2022-12-08T06:06:52.427Z,3.18
2022-12-08T06:09:18.861Z,3.08
2022-12-08T06:11:47.102Z,3.01
2022-12-08T06:14:13.691Z,2.94
2022-12-08T06:16:40.236Z,2.93
2022-12-08T06:19:07.025Z,2.90
2022-12-08T06:21:33.512Z,2.94
2022-12-08T06:23:59.992Z,2.86
2022-12-08T06:26:26.716Z,2.92
2022-12-08T06:28:53.221Z,2.89
2022-12-08T06:31:24.743Z,2.90
2022-12-08T06:33:52.155Z,2.89
2022-12-08T06:36:21.536Z,2.91
2022-12-08T06:38:48.625Z,2.91
2022-12-08T06:41:15.893Z,3.00
2022-12-08T06:43:42.735Z,2.94
2022-12-08T06:46:13.371Z,2.88
2022-12-08T06:48:39.986Z,2.87
2022-12-08T06:51:08.794Z,2.91
2022-12-08T06:53:35.300Z,2.80
2022-12-08T06:56:01.864Z,2.83
2022-12-08T06:58:28.403Z,2.90
2022-12-08T07:00:55.153Z,2.81
2022-12-08T07:03:21.752Z,2.79
2022-12-08T07:05:48.217Z,2.80
2022-12-08T07:08:15.076Z,2.83
2022-12-08T07:10:41.936Z,2.72
2022-12-08T07:13:08.424Z,2.79
2022-12-08T07:15:34.901Z,2.82
2022-12-08T07:18:01.378Z,2.85
2022-12-08T07:20:28.045Z,2.86
2022-12-08T07:22:54.662Z,2.83
2022-12-08T07:25:22.051Z,2.81
2022-12-08T07:27:50.422Z,2.78
2022-12-08T07:30:17.132Z,2.85
2022-12-08T07:32:43.636Z,2.84
2022-12-08T07:35:10.462Z,2.90
2022-12-08T07:37:37.971Z,2.89
2022-12-08T07:40:06.732Z,2.93
2022-12-08T07:42:33.728Z,2.94
2022-12-08T07:45:00.830Z,2.82
2022-12-08T07:47:27.417Z,2.78
2022-12-08T07:49:53.895Z,2.83
2022-12-08T07:52:20.559Z,2.86
2022-12-08T07:54:47.350Z,2.82
2022-12-08T07:57:13.957Z,2.83
2022-12-08T07:59:40.460Z,2.77
2022-12-08T08:02:24.300Z,2.80
2022-12-08T08:04:52.121Z,2.76
2022-12-08T08:07:18.738Z,2.66
2022-12-08T08:09:45.830Z,2.72
2022-12-08T08:12:31.867Z,2.85
2022-12-08T08:15:00.443Z,2.81
2022-12-08T08:17:27.579Z,2.79
2022-12-08T08:19:54.235Z,2.82
2022-12-08T08:22:20.719Z,2.81
2022-12-08T08:24:47.131Z,2.82
2022-12-08T08:27:14.037Z,2.86
2022-12-08T08:29:40.569Z,2.89
2022-12-08T08:32:07.079Z,3.00
2022-12-08T08:34:36.640Z,2.93
2022-12-08T08:37:04.437Z,2.86
2022-12-08T08:39:32.045Z,2.95
2022-12-08T08:41:58.750Z,2.89
2022-12-08T08:44:25.361Z,2.91
2022-12-08T08:46:52.300Z,2.95
2022-12-08T08:49:18.914Z,2.96
2022-12-08T08:51:46.199Z,3.03
2022-12-08T08:54:12.719Z,3.05
2022-12-08T08:56:39.200Z,3.13
2022-12-08T08:59:05.660Z,3.17
2022-12-08T09:01:32.447Z,3.19
2022-12-08T09:03:59.057Z,3.25
2022-12-08T09:06:28.132Z,3.22
2022-12-08T09:08:54.723Z,3.23
2022-12-08T09:11:23.282Z,3.23
2022-12-08T09:13:50.146Z,3.33
2022-12-08T09:16:17.516Z,3.31
2022-12-08T09:18:44.221Z,3.34
2022-12-08T09:21:16.577Z,3.34
2022-12-08T09:23:44.213Z,3.36
2022-12-08T09:26:10.682Z,3.38
2022-12-08T09:28:37.591Z,3.38
2022-12-08T09:31:04.433Z,3.35
2022-12-08T09:33:31.181Z,3.27
2022-12-08T09:36:04.759Z,3.30
2022-12-08T09:38:31.895Z,3.25
2022-12-08T09:40:59.834Z,3.29
2022-12-08T09:43:47.796Z,3.30
2022-12-08T09:46:24.764Z,3.28
2022-12-08T09:48:57.028Z,3.30
2022-12-08T09:51:31.361Z,3.26
2022-12-08T09:54:15.736Z,3.23
2022-12-08T09:56:42.279Z,3.24
2022-12-08T09:59:08.868Z,3.26
2022-12-08T10:01:41.580Z,3.34
2022-12-08T10:04:36.111Z,3.32
2022-12-08T10:07:31.964Z,3.31
2022-12-08T10:10:25.128Z,3.34
2022-12-08T10:13:14.507Z,3.32
2022-12-08T10:16:00.245Z,3.37
2022-12-08T10:18:32.359Z,3.34
2022-12-08T10:21:20.508Z,3.26
2022-12-08T10:23:53.395Z,3.33
2022-12-08T10:26:21.458Z,3.32
2022-12-08T10:28:48.409Z,3.22
2022-12-08T10:31:24.253Z,3.24
2022-12-08T10:34:01.375Z,3.29
2022-12-08T10:36:51.971Z,3.27
2022-12-08T10:39:57.083Z,3.28
2022-12-08T10:42:23.581Z,3.25
2022-12-08T10:45:19.504Z,3.22
2022-12-08T10:48:10.412Z,3.24
2022-12-08T10:50:43.959Z,3.24
2022-12-08T10:53:20.420Z,3.19
2022-12-08T10:55:50.171Z,3.19
2022-12-08T10:58:24.656Z,3.11
2022-12-08T11:00:55.960Z,3.02
2022-12-08T11:03:28.167Z,3.07
2022-12-08T11:06:05.425Z,2.99
2022-12-08T11:08:44.256Z,2.99
2022-12-08T11:11:11.860Z,2.91
2022-12-08T11:13:42.145Z,2.94
2022-12-08T11:16:13.808Z,2.92
2022-12-08T11:18:47.028Z,2.90
2022-12-08T11:21:19.835Z,2.92
2022-12-08T11:23:49.347Z,2.88
2022-12-08T11:26:25.972Z,2.93
2022-12-08T11:28:52.430Z,2.97
2022-12-08T11:31:21.609Z,3.08
2022-12-08T11:33:51.171Z,3.13
2022-12-08T11:36:20.685Z,3.15
2022-12-08T11:38:50.512Z,3.19
2022-12-08T11:41:20.060Z,3.14
2022-12-08T11:44:16.566Z,3.11
2022-12-08T11:47:10.717Z,3.16
2022-12-08T11:49:39.951Z,3.08
2022-12-08T11:52:24.069Z,3.09
2022-12-08T11:54:50.411Z,3.11
2022-12-08T11:57:20.592Z,3.17
2022-12-08T11:59:57.284Z,3.12
2022-12-08T12:02:26.976Z,3.12
2022-12-08T12:05:06.326Z,3.17
2022-12-08T12:07:54.303Z,3.17
2022-12-08T12:10:51.173Z,3.17
2022-12-08T12:13:55.982Z,3.08
2022-12-08T12:16:40.779Z,3.11
2022-12-08T12:19:14.748Z,3.15
2022-12-08T12:21:48.755Z,3.19
2022-12-08T12:24:27.348Z,3.23
2022-12-08T12:27:02.562Z,3.28
2022-12-08T12:29:35.978Z,3.22
2022-12-08T12:32:06.060Z,3.19
2022-12-08T12:34:57.143Z,3.13
2022-12-08T12:37:28.055Z,3.11
2022-12-08T12:40:05.553Z,3.14
2022-12-08T12:42:39.866Z,3.17
2022-12-08T12:45:31.226Z,3.18
2022-12-08T12:48:00.336Z,3.30
2022-12-08T12:50:33.024Z,3.30
2022-12-08T12:53:01.214Z,3.26
2022-12-08T12:55:48.989Z,3.26
2022-12-08T12:58:27.421Z,3.44
2022-12-08T13:01:15.234Z,3.53
2022-12-08T13:04:03.663Z,3.57
2022-12-08T13:06:38.750Z,3.55
2022-12-08T13:09:07.289Z,3.63
2022-12-08T13:11:49.761Z,3.55
2022-12-08T13:14:59.399Z,3.67
2022-12-08T13:17:32.828Z,3.70
2022-12-08T13:20:04.282Z,3.67
2022-12-08T13:22:50.207Z,3.56
2022-12-08T13:25:42.482Z,3.58
2022-12-08T13:28:22.057Z,3.53
2022-12-08T13:30:54.169Z,3.44
2022-12-08T13:33:26.716Z,3.41
2022-12-08T13:36:14.484Z,3.29
2022-12-08T13:38:46.060Z,3.22
2022-12-08T13:41:29.392Z,3.14
2022-12-08T13:45:03.474Z,3.18
2022-12-08T13:47:17.173Z,3.08
2022-12-08T13:51:10.508Z,3.05
2022-12-08T13:56:51.312Z,3.12
2022-12-08T13:58:31.889Z,3.11
2022-12-08T14:00:58.807Z,3.15
2022-12-08T14:03:25.486Z,3.21
2022-12-08T14:11:34.844Z,3.27
2022-12-08T14:14:06.960Z,3.25
2022-12-08T14:16:38.967Z,3.24
2022-12-08T14:19:32.326Z,3.31
2022-12-08T14:22:07.976Z,3.36
2022-12-08T14:24:34.503Z,3.32
2022-12-08T14:27:04.348Z,3.27
2022-12-08T14:29:39.670Z,3.21
2022-12-08T14:32:20.033Z,3.13
2022-12-08T14:34:53.857Z,3.16
2022-12-08T14:37:21.750Z,3.07
2022-12-08T14:39:51.063Z,3.02
2022-12-08T14:42:25.980Z,2.96
2022-12-08T14:45:01.968Z,2.89
2022-12-08T14:47:33.587Z,2.87
2022-12-08T14:50:03.293Z,2.84
2022-12-08T14:52:30.449Z,2.80
2022-12-08T14:54:58.440Z,2.80
2022-12-08T14:57:35.350Z,2.83
2022-12-08T15:00:08.619Z,2.87
2022-12-08T15:02:42.155Z,2.83
2022-12-08T15:05:31.978Z,2.84
2022-12-08T15:08:03.987Z,2.81
2022-12-08T15:10:33.237Z,2.87
2022-12-08T15:13:05.082Z,2.86
2022-12-08T15:15:45.718Z,2.81
2022-12-08T15:18:37.356Z,2.77
2022-12-08T15:21:08.941Z,2.70
2022-12-08T15:23:45.894Z,2.64
2022-12-08T15:26:23.809Z,2.53
2022-12-08T15:28:50.722Z,2.54
2022-12-08T15:31:18.303Z,2.55
2022-12-08T15:33:45.021Z,2.54
2022-12-08T15:36:12.056Z,2.45
2022-12-08T15:38:39.114Z,2.32
2022-12-08T15:41:08.038Z,2.26
2022-12-08T15:43:37.990Z,2.18
2022-12-08T15:46:04.929Z,2.16
2022-12-08T15:48:31.419Z,2.06
2022-12-08T15:50:58.535Z,1.99
2022-12-08T15:53:25.263Z,1.97
2022-12-08T15:58:53.405Z,1.85
2022-12-08T16:01:21.012Z,1.84
2022-12-08T16:09:32.592Z,1.74
2022-12-08T16:12:17.709Z,1.72
2022-12-08T16:15:48.136Z,1.74
2022-12-08T16:17:31.667Z,1.74
2022-12-08T16:19:59.042Z,1.67
2022-12-08T16:25:20.616Z,1.71
2022-12-08T16:28:05.215Z,1.65
2022-12-08T16:30:32.712Z,1.74
2022-12-08T16:32:59.182Z,1.80
2022-12-08T16:35:25.676Z,1.75
2022-12-08T16:37:52.128Z,1.77
2022-12-08T16:40:18.689Z,1.77
2022-12-08T16:42:46.546Z,1.79
2022-12-08T16:45:18.822Z,1.76
2022-12-08T16:47:48.012Z,1.83
2022-12-08T16:50:17.838Z,1.83
2022-12-08T16:52:45.450Z,1.89
2022-12-08T16:55:15.696Z,1.91
2022-12-08T16:57:42.628Z,1.94
2022-12-08T17:00:16.380Z,1.95
2022-12-08T17:02:42.950Z,2.01
2022-12-08T17:05:13.744Z,1.96
2022-12-08T17:07:42.080Z,1.97
2022-12-08T17:10:10.663Z,2.09
2022-12-08T17:12:37.222Z,1.99
2022-12-08T17:15:08.626Z,2.03
2022-12-08T17:17:35.891Z,2.05
2022-12-08T17:20:05.500Z,2.12
2022-12-08T17:22:34.283Z,2.15
2022-12-08T17:25:01.040Z,2.15
2022-12-08T17:27:27.862Z,2.09
2022-12-08T17:29:54.524Z,2.17
2022-12-08T17:32:21.227Z,2.10
2022-12-08T17:34:48.472Z,2.09
2022-12-08T17:37:15.171Z,2.07
2022-12-08T17:39:41.682Z,2.18
2022-12-08T17:42:08.640Z,2.15
2022-12-08T17:44:35.738Z,2.12
2022-12-08T17:47:03.052Z,2.13
2022-12-08T17:49:31.035Z,2.11
2022-12-08T17:51:59.430Z,2.13
2022-12-08T17:54:25.984Z,2.16
2022-12-08T17:56:52.499Z,2.06
2022-12-08T17:59:19.010Z,2.00
2022-12-08T18:01:45.709Z,1.96
2022-12-08T18:04:12.900Z,1.96
2022-12-08T18:06:39.775Z,1.88
2022-12-08T18:09:07.837Z,1.91
2022-12-08T18:11:35.933Z,1.88
2022-12-08T18:14:09.723Z,1.87
2022-12-08T18:16:41.683Z,1.86
2022-12-08T18:19:09.429Z,1.79
2022-12-08T18:21:36.290Z,1.80
2022-12-08T18:24:03.349Z,1.77
2022-12-08T18:26:30.726Z,1.71
2022-12-08T18:28:57.891Z,1.65
2022-12-08T18:31:25.100Z,1.61
2022-12-08T18:33:52.560Z,1.59
2022-12-08T18:36:22.009Z,1.53
2022-12-08T18:38:49.064Z,1.53
2022-12-08T18:41:23.401Z,1.54
2022-12-08T18:43:50.340Z,1.48
2022-12-08T18:46:16.932Z,1.48
2022-12-08T18:48:47.212Z,1.36
2022-12-08T18:51:23.004Z,1.36
2022-12-08T18:53:50.299Z,1.35
2022-12-08T18:56:28.020Z,1.31
2022-12-08T18:59:03.171Z,1.21
2022-12-08T19:01:35.208Z,1.20
2022-12-08T19:04:27.437Z,1.22
2022-12-08T19:06:56.663Z,1.34
2022-12-08T19:09:25.492Z,1.32
2022-12-08T19:11:52.685Z,1.40
2022-12-08T19:14:25.775Z,1.31
2022-12-08T19:16:54.415Z,1.41
2022-12-08T19:19:21.607Z,1.43
2022-12-08T19:21:48.539Z,1.39
2022-12-08T19:24:15.580Z,1.62
2022-12-08T19:26:42.917Z,1.55
2022-12-08T19:29:10.481Z,1.62
2022-12-08T19:31:37.421Z,1.66
2022-12-08T19:34:08.451Z,1.66
2022-12-08T19:36:38.190Z,1.61
2022-12-08T19:39:23.919Z,1.68
2022-12-08T19:42:09.146Z,1.76
2022-12-08T19:44:54.299Z,1.87
2022-12-08T19:47:26.148Z,1.84
2022-12-08T19:49:55.359Z,1.81
2022-12-08T19:52:22.277Z,1.77
2022-12-08T19:54:48.841Z,1.86
2022-12-08T19:57:15.965Z,1.88
2022-12-08T19:59:42.458Z,1.82
2022-12-08T20:02:10.522Z,1.81
2022-12-08T20:04:37.149Z,1.86
2022-12-08T20:07:04.240Z,1.88
2022-12-08T20:09:30.651Z,1.86
2022-12-08T20:11:57.162Z,1.92
2022-12-08T20:14:23.585Z,1.92
2022-12-08T20:16:53.274Z,1.91
2022-12-08T20:19:19.912Z,1.95
2022-12-08T20:21:46.616Z,1.95
2022-12-08T20:24:13.506Z,1.94
2022-12-08T20:26:40.087Z,1.96
2022-12-08T20:29:06.975Z,2.02
2022-12-08T20:31:33.827Z,1.99
2022-12-08T20:34:01.236Z,1.96
2022-12-08T20:36:28.288Z,2.01
2022-12-08T20:38:55.617Z,2.01
2022-12-08T20:41:23.397Z,2.04
2022-12-08T20:43:50.487Z,2.02
2022-12-08T20:46:18.092Z,2.05
2022-12-08T20:48:44.940Z,2.06
2022-12-08T20:51:16.718Z,2.10
2022-12-08T20:53:43.462Z,2.10
2022-12-08T20:56:17.450Z,2.14
2022-12-08T20:58:44.838Z,2.16
2022-12-08T21:01:13.029Z,2.25
2022-12-08T21:03:40.354Z,2.27
2022-12-08T21:06:07.958Z,2.32
2022-12-08T21:08:35.393Z,2.34
2022-12-08T21:11:02.628Z,2.32
2022-12-08T21:13:29.483Z,2.33
2022-12-08T21:15:56.785Z,2.34
2022-12-08T21:18:24.463Z,2.34
2022-12-08T21:20:52.286Z,2.26
2022-12-08T21:23:19.221Z,2.29
2022-12-08T21:25:47.244Z,2.24
2022-12-08T21:28:13.902Z,2.22
2022-12-08T21:30:41.429Z,2.20
2022-12-08T21:33:08.253Z,2.23
2022-12-08T21:35:34.893Z,2.14
2022-12-08T21:38:01.564Z,2.10
2022-12-08T21:40:28.269Z,2.07
2022-12-08T21:42:55.105Z,2.08
2022-12-08T21:45:22.062Z,2.12
2022-12-08T21:47:49.877Z,2.15
2022-12-08T21:50:17.659Z,2.15
2022-12-08T21:52:47.226Z,2.09
2022-12-08T21:55:15.798Z,2.07
2022-12-08T21:57:42.772Z,2.05
2022-12-08T22:00:13.371Z,2.08
2022-12-08T22:02:40.096Z,2.08
2022-12-08T22:05:07.140Z,2.14
2022-12-08T22:07:33.758Z,2.15
2022-12-08T22:10:00.327Z,2.16
2022-12-08T22:12:27.073Z,2.16
2022-12-08T22:14:53.518Z,2.13
2022-12-08T22:17:20.310Z,2.12
2022-12-08T22:19:47.128Z,2.22
2022-12-08T22:22:13.642Z,2.31
2022-12-08T22:24:40.146Z,2.27
2022-12-08T22:27:06.716Z,2.24
2022-12-08T22:29:33.158Z,2.24
2022-12-08T22:32:00.077Z,2.23
2022-12-08T22:34:26.725Z,2.23
2022-12-08T22:36:53.143Z,2.20
2022-12-08T22:39:20.693Z,2.25
2022-12-08T22:41:47.177Z,2.25
2022-12-08T22:44:16.029Z,2.22
2022-12-08T22:46:42.868Z,2.19
2022-12-08T22:49:09.475Z,2.30
2022-12-08T22:51:37.210Z,2.23
2022-12-08T22:54:04.412Z,2.22
2022-12-08T22:56:31.236Z,2.18
2022-12-08T22:58:58.493Z,2.23
2022-12-08T23:01:29.265Z,2.22
2022-12-08T23:03:56.539Z,2.18
2022-12-08T23:06:24.059Z,2.22
2022-12-08T23:08:51.126Z,2.18
2022-12-08T23:11:18.511Z,2.19
2022-12-08T23:13:45.383Z,2.19
2022-12-08T23:16:13.089Z,2.22
2022-12-08T23:18:44.945Z,2.19
2022-12-08T23:21:15.356Z,2.18
2022-12-08T23:23:42.451Z,2.18
2022-12-08T23:26:18.454Z,2.23
2022-12-08T23:28:45.735Z,2.22
2022-12-08T23:31:12.629Z,2.23
2022-12-08T23:33:39.119Z,2.28
2022-12-08T23:36:06.103Z,2.26
2022-12-08T23:38:33.032Z,2.39
2022-12-08T23:41:05.469Z,2.32
2022-12-08T23:43:32.814Z,2.33
2022-12-08T23:45:59.739Z,2.24
2022-12-08T23:48:27.922Z,2.29
2022-12-08T23:50:54.947Z,2.25
2022-12-08T23:53:21.630Z,2.25
2022-12-08T23:55:48.387Z,2.17
2022-12-08T23:58:14.838Z,2.21
